sensor_id;sensor_type;location;lat;lon;timestamp;P1;durP1;ratioP1;P2;durP2;ratioP2
10343;SDS011;5217;43.960;10.954;2023-06-26T00:00:52;3.80;;;3.50;;
10343;SDS011;5217;43.960;10.954;2023-06-26T00:03:20;3.85;;;3.55;;
10343;SDS011;5217;43.960;10.954;2023-06-26T00:05:51;3.50;;;3.20;;
10343;SDS011;5217;43.960;10.954;2023-06-26T00:08:19;4.00;;;3.60;;
10343;SDS011;5217;43.960;10.954;2023-06-26T00:10:48;3.30;;;3.10;;
10343;SDS011;5217;43.960;10.954;2023-06-26T00:13:18;5.13;;;3.10;;
10343;SDS011;5217;43.960;10.954;2023-06-26T00:15:46;3.22;;;2.92;;
10343;SDS011;5217;43.960;10.954;2023-06-26T00:18:15;4.55;;;3.15;;
10343;SDS011;5217;43.960;10.954;2023-06-26T00:20:43;3.40;;;3.10;;
10343;SDS011;5217;43.960;10.954;2023-06-26T00:23:15;3.85;;;3.10;;
10343;SDS011;5217;43.960;10.954;2023-06-26T00:25:44;3.70;;;3.40;;
10343;SDS011;5217;43.960;10.954;2023-06-26T00:28:13;3.70;;;3.40;;
10343;SDS011;5217;43.960;10.954;2023-06-26T00:30:42;3.60;;;3.30;;
10343;SDS011;5217;43.960;10.954;2023-06-26T00:33:10;3.90;;;3.55;;
10343;SDS011;5217;43.960;10.954;2023-06-26T00:35:39;3.90;;;3.60;;
10343;SDS011;5217;43.960;10.954;2023-06-26T00:38:07;3.47;;;3.17;;
10343;SDS011;5217;43.960;10.954;2023-06-26T00:40:37;3.92;;;3.53;;
10343;SDS011;5217;43.960;10.954;2023-06-26T00:43:06;3.47;;;3.17;;
10343;SDS011;5217;43.960;10.954;2023-06-26T00:45:35;3.53;;;3.22;;
10343;SDS011;5217;43.960;10.954;2023-06-26T00:48:09;3.85;;;3.20;;
10343;SDS011;5217;43.960;10.954;2023-06-26T00:50:40;3.60;;;3.30;;
10343;SDS011;5217;43.960;10.954;2023-06-26T00:53:10;3.28;;;2.97;;
10343;SDS011;5217;43.960;10.954;2023-06-26T00:55:40;3.92;;;3.55;;
10343;SDS011;5217;43.960;10.954;2023-06-26T00:58:09;3.95;;;3.65;;
10343;SDS011;5217;43.960;10.954;2023-06-26T01:00:38;3.72;;;3.50;;
10343;SDS011;5217;43.960;10.954;2023-06-26T01:03:08;3.65;;;3.35;;
10343;SDS011;5217;43.960;10.954;2023-06-26T01:05:36;3.88;;;3.47;;
10343;SDS011;5217;43.960;10.954;2023-06-26T01:08:05;3.50;;;3.20;;
10343;SDS011;5217;43.960;10.954;2023-06-26T01:10:34;3.55;;;3.25;;
10343;SDS011;5217;43.960;10.954;2023-06-26T01:13:04;3.40;;;3.15;;
10343;SDS011;5217;43.960;10.954;2023-06-26T01:15:33;3.50;;;3.20;;
10343;SDS011;5217;43.960;10.954;2023-06-26T01:18:02;3.40;;;3.10;;
10343;SDS011;5217;43.960;10.954;2023-06-26T01:20:31;3.55;;;3.30;;
10343;SDS011;5217;43.960;10.954;2023-06-26T01:23:06;3.97;;;3.60;;
10343;SDS011;5217;43.960;10.954;2023-06-26T01:25:45;4.18;;;3.47;;
10343;SDS011;5217;43.960;10.954;2023-06-26T01:28:30;3.88;;;3.25;;
10343;SDS011;5217;43.960;10.954;2023-06-26T01:31:02;3.45;;;3.15;;
10343;SDS011;5217;43.960;10.954;2023-06-26T01:33:32;3.45;;;3.17;;
10343;SDS011;5217;43.960;10.954;2023-06-26T01:36:01;3.67;;;3.38;;
10343;SDS011;5217;43.960;10.954;2023-06-26T01:38:30;6.82;;;3.60;;
10343;SDS011;5217;43.960;10.954;2023-06-26T01:40:59;3.83;;;3.00;;
10343;SDS011;5217;43.960;10.954;2023-06-26T01:43:29;3.53;;;3.22;;
10343;SDS011;5217;43.960;10.954;2023-06-26T01:46:04;3.60;;;3.30;;
10343;SDS011;5217;43.960;10.954;2023-06-26T01:48:38;3.20;;;3.00;;
10343;SDS011;5217;43.960;10.954;2023-06-26T01:51:14;3.53;;;3.25;;
10343;SDS011;5217;43.960;10.954;2023-06-26T01:53:46;3.60;;;3.30;;
10343;SDS011;5217;43.960;10.954;2023-06-26T01:56:20;3.55;;;3.25;;
10343;SDS011;5217;43.960;10.954;2023-06-26T01:58:53;3.25;;;3.05;;
10343;SDS011;5217;43.960;10.954;2023-06-26T02:01:23;3.40;;;3.20;;
10343;SDS011;5217;43.960;10.954;2023-06-26T02:03:52;3.70;;;3.35;;
10343;SDS011;5217;43.960;10.954;2023-06-26T02:06:21;3.65;;;3.35;;
10343;SDS011;5217;43.960;10.954;2023-06-26T02:08:50;3.63;;;3.33;;
10343;SDS011;5217;43.960;10.954;2023-06-26T02:11:19;3.45;;;3.15;;
10343;SDS011;5217;43.960;10.954;2023-06-26T02:13:47;3.75;;;2.90;;
10343;SDS011;5217;43.960;10.954;2023-06-26T02:16:18;3.53;;;3.22;;
10343;SDS011;5217;43.960;10.954;2023-06-26T02:18:46;3.40;;;3.10;;
10343;SDS011;5217;43.960;10.954;2023-06-26T02:21:15;3.67;;;3.38;;
10343;SDS011;5217;43.960;10.954;2023-06-26T02:23:44;3.53;;;3.22;;
10343;SDS011;5217;43.960;10.954;2023-06-26T02:26:13;3.30;;;3.10;;
10343;SDS011;5217;43.960;10.954;2023-06-26T02:28:42;4.15;;;3.85;;
10343;SDS011;5217;43.960;10.954;2023-06-26T02:31:11;3.53;;;3.22;;
10343;SDS011;5217;43.960;10.954;2023-06-26T02:33:42;3.83;;;3.53;;
10343;SDS011;5217;43.960;10.954;2023-06-26T02:36:12;4.63;;;3.10;;
10343;SDS011;5217;43.960;10.954;2023-06-26T02:38:40;3.85;;;3.55;;
10343;SDS011;5217;43.960;10.954;2023-06-26T02:41:09;3.50;;;3.20;;
10343;SDS011;5217;43.960;10.954;2023-06-26T02:43:38;3.65;;;3.35;;
10343;SDS011;5217;43.960;10.954;2023-06-26T02:46:07;4.82;;;3.30;;
10343;SDS011;5217;43.960;10.954;2023-06-26T02:48:36;3.63;;;3.33;;
10343;SDS011;5217;43.960;10.954;2023-06-26T02:51:07;3.80;;;3.50;;
10343;SDS011;5217;43.960;10.954;2023-06-26T02:53:36;3.80;;;3.50;;
10343;SDS011;5217;43.960;10.954;2023-06-26T02:56:04;3.22;;;3.03;;
10343;SDS011;5217;43.960;10.954;2023-06-26T02:58:33;3.70;;;3.40;;
10343;SDS011;5217;43.960;10.954;2023-06-26T03:01:02;3.65;;;3.35;;
10343;SDS011;5217;43.960;10.954;2023-06-26T03:03:31;3.67;;;3.38;;
10343;SDS011;5217;43.960;10.954;2023-06-26T03:06:08;3.53;;;3.25;;
10343;SDS011;5217;43.960;10.954;2023-06-26T03:08:37;3.60;;;3.30;;
10343;SDS011;5217;43.960;10.954;2023-06-26T03:11:08;3.78;;;3.47;;
10343;SDS011;5217;43.960;10.954;2023-06-26T03:13:37;4.53;;;3.33;;
10343;SDS011;5217;43.960;10.954;2023-06-26T03:16:06;3.92;;;3.63;;
10343;SDS011;5217;43.960;10.954;2023-06-26T03:18:34;3.78;;;3.47;;
10343;SDS011;5217;43.960;10.954;2023-06-26T03:21:03;3.75;;;3.40;;
10343;SDS011;5217;43.960;10.954;2023-06-26T03:23:34;3.70;;;3.40;;
10343;SDS011;5217;43.960;10.954;2023-06-26T03:26:03;3.45;;;3.25;;
10343;SDS011;5217;43.960;10.954;2023-06-26T03:28:32;3.88;;;3.58;;
10343;SDS011;5217;43.960;10.954;2023-06-26T03:31:00;3.97;;;3.60;;
10343;SDS011;5217;43.960;10.954;2023-06-26T03:33:29;3.60;;;3.30;;
10343;SDS011;5217;43.960;10.954;2023-06-26T03:35:58;3.90;;;3.50;;
10343;SDS011;5217;43.960;10.954;2023-06-26T03:38:26;3.58;;;3.38;;
10343;SDS011;5217;43.960;10.954;2023-06-26T03:40:56;4.18;;;3.63;;
10343;SDS011;5217;43.960;10.954;2023-06-26T03:43:25;4.60;;;3.38;;
10343;SDS011;5217;43.960;10.954;2023-06-26T03:45:54;3.40;;;3.10;;
10343;SDS011;5217;43.960;10.954;2023-06-26T03:48:23;3.50;;;3.30;;
10343;SDS011;5217;43.960;10.954;2023-06-26T03:50:51;3.22;;;3.03;;
10343;SDS011;5217;43.960;10.954;2023-06-26T03:53:20;3.47;;;3.28;;
10343;SDS011;5217;43.960;10.954;2023-06-26T03:55:48;3.65;;;3.35;;
10343;SDS011;5217;43.960;10.954;2023-06-26T03:58:19;3.35;;;3.15;;
10343;SDS011;5217;43.960;10.954;2023-06-26T04:00:47;3.53;;;3.22;;
10343;SDS011;5217;43.960;10.954;2023-06-26T04:03:16;3.33;;;3.03;;
10343;SDS011;5217;43.960;10.954;2023-06-26T04:05:45;3.30;;;3.10;;
10343;SDS011;5217;43.960;10.954;2023-06-26T04:08:13;3.30;;;3.10;;
10343;SDS011;5217;43.960;10.954;2023-06-26T04:10:42;3.22;;;3.03;;
10343;SDS011;5217;43.960;10.954;2023-06-26T04:13:12;3.75;;;3.30;;
10343;SDS011;5217;43.960;10.954;2023-06-26T04:15:42;3.70;;;3.28;;
10343;SDS011;5217;43.960;10.954;2023-06-26T04:18:10;3.30;;;3.00;;
10343;SDS011;5217;43.960;10.954;2023-06-26T04:20:39;3.30;;;3.00;;
10343;SDS011;5217;43.960;10.954;2023-06-26T04:23:11;3.67;;;3.38;;
10343;SDS011;5217;43.960;10.954;2023-06-26T04:25:40;3.28;;;3.00;;
10343;SDS011;5217;43.960;10.954;2023-06-26T04:28:09;3.30;;;3.00;;
10343;SDS011;5217;43.960;10.954;2023-06-26T04:30:38;3.22;;;2.92;;
10343;SDS011;5217;43.960;10.954;2023-06-26T04:33:08;3.05;;;2.85;;
10343;SDS011;5217;43.960;10.954;2023-06-26T04:35:38;3.30;;;3.10;;
10343;SDS011;5217;43.960;10.954;2023-06-26T04:38:07;3.53;;;3.22;;
10343;SDS011;5217;43.960;10.954;2023-06-26T04:40:36;3.40;;;3.10;;
10343;SDS011;5217;43.960;10.954;2023-06-26T04:43:05;3.58;;;3.28;;
10343;SDS011;5217;43.960;10.954;2023-06-26T04:45:35;3.67;;;3.38;;
10343;SDS011;5217;43.960;10.954;2023-06-26T04:48:04;3.40;;;3.10;;
10343;SDS011;5217;43.960;10.954;2023-06-26T04:50:34;3.60;;;3.30;;
10343;SDS011;5217;43.960;10.954;2023-06-26T04:53:03;4.00;;;3.65;;
10343;SDS011;5217;43.960;10.954;2023-06-26T04:55:32;3.65;;;3.35;;
10343;SDS011;5217;43.960;10.954;2023-06-26T04:58:03;3.67;;;3.38;;
10343;SDS011;5217;43.960;10.954;2023-06-26T05:00:31;3.60;;;3.30;;
10343;SDS011;5217;43.960;10.954;2023-06-26T05:03:03;3.42;;;3.20;;
10343;SDS011;5217;43.960;10.954;2023-06-26T05:05:31;3.80;;;3.50;;
10343;SDS011;5217;43.960;10.954;2023-06-26T05:08:06;4.22;;;3.70;;
10343;SDS011;5217;43.960;10.954;2023-06-26T05:10:42;4.30;;;3.40;;
10343;SDS011;5217;43.960;10.954;2023-06-26T05:13:11;4.65;;;3.58;;
10343;SDS011;5217;43.960;10.954;2023-06-26T05:15:41;6.20;;;3.50;;
10343;SDS011;5217;43.960;10.954;2023-06-26T05:18:10;9.93;;;4.70;;
10343;SDS011;5217;43.960;10.954;2023-06-26T05:20:39;6.30;;;4.18;;
10343;SDS011;5217;43.960;10.954;2023-06-26T05:23:09;4.07;;;3.75;;
10343;SDS011;5217;43.960;10.954;2023-06-26T05:25:40;4.35;;;3.92;;
10343;SDS011;5217;43.960;10.954;2023-06-26T05:28:09;3.92;;;3.63;;
10343;SDS011;5217;43.960;10.954;2023-06-26T05:30:39;4.10;;;3.80;;
10343;SDS011;5217;43.960;10.954;2023-06-26T05:33:08;3.75;;;3.45;;
10343;SDS011;5217;43.960;10.954;2023-06-26T05:35:39;3.67;;;3.38;;
10343;SDS011;5217;43.960;10.954;2023-06-26T05:38:10;4.50;;;3.72;;
10343;SDS011;5217;43.960;10.954;2023-06-26T05:40:40;4.18;;;3.88;;
10343;SDS011;5217;43.960;10.954;2023-06-26T05:43:09;3.88;;;3.58;;
10343;SDS011;5217;43.960;10.954;2023-06-26T05:45:38;4.50;;;3.65;;
10343;SDS011;5217;43.960;10.954;2023-06-26T05:48:07;4.00;;;3.60;;
10343;SDS011;5217;43.960;10.954;2023-06-26T05:50:36;4.03;;;3.60;;
10343;SDS011;5217;43.960;10.954;2023-06-26T05:53:08;4.75;;;3.60;;
10343;SDS011;5217;43.960;10.954;2023-06-26T05:55:38;4.18;;;3.88;;
10343;SDS011;5217;43.960;10.954;2023-06-26T05:58:10;5.05;;;3.53;;
10343;SDS011;5217;43.960;10.954;2023-06-26T06:00:39;4.10;;;3.70;;
10343;SDS011;5217;43.960;10.954;2023-06-26T06:03:09;3.90;;;3.60;;
10343;SDS011;5217;43.960;10.954;2023-06-26T06:05:38;4.07;;;3.67;;
10343;SDS011;5217;43.960;10.954;2023-06-26T06:08:06;3.78;;;3.47;;
10343;SDS011;5217;43.960;10.954;2023-06-26T06:10:36;4.28;;;3.88;;
10343;SDS011;5217;43.960;10.954;2023-06-26T06:13:05;3.60;;;3.40;;
10343;SDS011;5217;43.960;10.954;2023-06-26T06:15:34;3.60;;;3.30;;
10343;SDS011;5217;43.960;10.954;2023-06-26T06:18:02;4.63;;;3.70;;
10343;SDS011;5217;43.960;10.954;2023-06-26T06:20:31;4.28;;;3.80;;
10343;SDS011;5217;43.960;10.954;2023-06-26T06:23:00;4.22;;;3.83;;
10343;SDS011;5217;43.960;10.954;2023-06-26T06:25:28;4.35;;;4.00;;
10343;SDS011;5217;43.960;10.954;2023-06-26T06:27:58;4.93;;;3.97;;
10343;SDS011;5217;43.960;10.954;2023-06-26T06:30:27;4.63;;;4.10;;
10343;SDS011;5217;43.960;10.954;2023-06-26T06:33:10;4.70;;;4.30;;
10343;SDS011;5217;43.960;10.954;2023-06-26T06:35:38;4.90;;;4.50;;
10343;SDS011;5217;43.960;10.954;2023-06-26T06:38:07;5.07;;;4.40;;
10343;SDS011;5217;43.960;10.954;2023-06-26T06:40:36;4.68;;;4.28;;
10343;SDS011;5217;43.960;10.954;2023-06-26T06:43:06;5.07;;;4.68;;
10343;SDS011;5217;43.960;10.954;2023-06-26T06:45:34;5.30;;;4.78;;
10343;SDS011;5217;43.960;10.954;2023-06-26T06:48:04;5.25;;;4.80;;
10343;SDS011;5217;43.960;10.954;2023-06-26T06:50:33;5.03;;;4.53;;
10343;SDS011;5217;43.960;10.954;2023-06-26T06:53:02;4.72;;;4.32;;
10343;SDS011;5217;43.960;10.954;2023-06-26T06:55:31;4.70;;;4.30;;
10343;SDS011;5217;43.960;10.954;2023-06-26T06:57:59;4.93;;;4.47;;
10343;SDS011;5217;43.960;10.954;2023-06-26T07:00:32;4.88;;;4.47;;
10343;SDS011;5217;43.960;10.954;2023-06-26T07:03:01;4.65;;;4.22;;
10343;SDS011;5217;43.960;10.954;2023-06-26T07:05:30;4.82;;;4.30;;
10343;SDS011;5217;43.960;10.954;2023-06-26T07:07:59;5.20;;;4.60;;
10343;SDS011;5217;43.960;10.954;2023-06-26T07:10:28;5.03;;;4.35;;
10343;SDS011;5217;43.960;10.954;2023-06-26T07:12:57;4.90;;;4.40;;
10343;SDS011;5217;43.960;10.954;2023-06-26T07:15:25;5.05;;;4.65;;
10343;SDS011;5217;43.960;10.954;2023-06-26T07:17:55;4.60;;;4.20;;
10343;SDS011;5217;43.960;10.954;2023-06-26T07:20:24;5.03;;;4.30;;
10343;SDS011;5217;43.960;10.954;2023-06-26T07:22:53;4.40;;;4.05;;
10343;SDS011;5217;43.960;10.954;2023-06-26T07:25:21;4.60;;;4.20;;
10343;SDS011;5217;43.960;10.954;2023-06-26T07:27:50;5.25;;;4.60;;
10343;SDS011;5217;43.960;10.954;2023-06-26T07:30:18;5.07;;;4.53;;
10343;SDS011;5217;43.960;10.954;2023-06-26T07:32:47;4.57;;;4.18;;
10343;SDS011;5217;43.960;10.954;2023-06-26T07:35:17;4.63;;;4.22;;
10343;SDS011;5217;43.960;10.954;2023-06-26T07:37:46;4.55;;;4.15;;
10343;SDS011;5217;43.960;10.954;2023-06-26T07:40:15;4.50;;;4.15;;
10343;SDS011;5217;43.960;10.954;2023-06-26T07:42:45;4.82;;;4.32;;
10343;SDS011;5217;43.960;10.954;2023-06-26T07:45:14;4.65;;;4.25;;
10343;SDS011;5217;43.960;10.954;2023-06-26T07:47:43;4.60;;;4.20;;
10343;SDS011;5217;43.960;10.954;2023-06-26T07:50:12;8.80;;;4.55;;
10343;SDS011;5217;43.960;10.954;2023-06-26T07:52:47;8.05;;;4.38;;
10343;SDS011;5217;43.960;10.954;2023-06-26T07:55:15;4.95;;;4.35;;
10343;SDS011;5217;43.960;10.954;2023-06-26T07:57:44;4.35;;;4.03;;
10343;SDS011;5217;43.960;10.954;2023-06-26T08:00:13;4.85;;;4.40;;
10343;SDS011;5217;43.960;10.954;2023-06-26T08:02:42;5.00;;;4.60;;
10343;SDS011;5217;43.960;10.954;2023-06-26T08:05:11;4.72;;;4.32;;
10343;SDS011;5217;43.960;10.954;2023-06-26T08:07:40;5.45;;;4.35;;
10343;SDS011;5217;43.960;10.954;2023-06-26T08:10:10;5.03;;;4.28;;
10343;SDS011;5217;43.960;10.954;2023-06-26T08:12:38;6.38;;;4.43;;
10343;SDS011;5217;43.960;10.954;2023-06-26T08:15:09;4.47;;;4.07;;
10343;SDS011;5217;43.960;10.954;2023-06-26T08:17:38;4.95;;;4.13;;
10343;SDS011;5217;43.960;10.954;2023-06-26T08:20:07;5.20;;;4.70;;
10343;SDS011;5217;43.960;10.954;2023-06-26T08:22:37;4.88;;;4.38;;
10343;SDS011;5217;43.960;10.954;2023-06-26T08:25:06;4.45;;;4.15;;
10343;SDS011;5217;43.960;10.954;2023-06-26T08:27:36;4.60;;;4.10;;
10343;SDS011;5217;43.960;10.954;2023-06-26T08:30:05;4.43;;;4.10;;
10343;SDS011;5217;43.960;10.954;2023-06-26T08:32:34;4.55;;;4.15;;
10343;SDS011;5217;43.960;10.954;2023-06-26T08:35:04;4.65;;;4.18;;
10343;SDS011;5217;43.960;10.954;2023-06-26T08:37:37;6.45;;;3.80;;
10343;SDS011;5217;43.960;10.954;2023-06-26T08:40:06;4.28;;;3.97;;
10343;SDS011;5217;43.960;10.954;2023-06-26T08:42:37;5.15;;;4.00;;
10343;SDS011;5217;43.960;10.954;2023-06-26T08:45:07;5.57;;;4.25;;
10343;SDS011;5217;43.960;10.954;2023-06-26T08:47:36;5.25;;;4.00;;
10343;SDS011;5217;43.960;10.954;2023-06-26T08:50:07;4.95;;;3.95;;
10343;SDS011;5217;43.960;10.954;2023-06-26T08:52:41;4.10;;;3.80;;
10343;SDS011;5217;43.960;10.954;2023-06-26T08:55:13;3.92;;;3.63;;
10343;SDS011;5217;43.960;10.954;2023-06-26T08:57:47;4.13;;;3.72;;
10343;SDS011;5217;43.960;10.954;2023-06-26T09:00:16;4.70;;;4.30;;
10343;SDS011;5217;43.960;10.954;2023-06-26T09:02:47;4.43;;;4.03;;
10343;SDS011;5217;43.960;10.954;2023-06-26T09:05:18;4.13;;;3.70;;
10343;SDS011;5217;43.960;10.954;2023-06-26T09:07:47;4.18;;;3.88;;
10343;SDS011;5217;43.960;10.954;2023-06-26T09:10:17;4.00;;;3.60;;
10343;SDS011;5217;43.960;10.954;2023-06-26T09:12:48;4.75;;;4.35;;
10343;SDS011;5217;43.960;10.954;2023-06-26T09:15:18;4.35;;;3.95;;
10343;SDS011;5217;43.960;10.954;2023-06-26T09:17:48;4.45;;;4.05;;
10343;SDS011;5217;43.960;10.954;2023-06-26T09:20:18;4.93;;;4.43;;
10343;SDS011;5217;43.960;10.954;2023-06-26T09:22:47;6.13;;;4.53;;
10343;SDS011;5217;43.960;10.954;2023-06-26T09:25:19;4.35;;;3.95;;
10343;SDS011;5217;43.960;10.954;2023-06-26T09:27:54;4.90;;;4.32;;
10343;SDS011;5217;43.960;10.954;2023-06-26T09:30:24;4.47;;;4.07;;
10343;SDS011;5217;43.960;10.954;2023-06-26T09:32:53;4.70;;;4.30;;
10343;SDS011;5217;43.960;10.954;2023-06-26T09:35:23;4.85;;;4.28;;
10343;SDS011;5217;43.960;10.954;2023-06-26T09:37:55;4.25;;;3.88;;
10343;SDS011;5217;43.960;10.954;2023-06-26T09:40:26;5.18;;;4.78;;
10343;SDS011;5217;43.960;10.954;2023-06-26T09:43:03;4.85;;;4.32;;
10343;SDS011;5217;43.960;10.954;2023-06-26T09:45:32;4.70;;;4.30;;
10343;SDS011;5217;43.960;10.954;2023-06-26T09:48:03;4.40;;;4.00;;
10343;SDS011;5217;43.960;10.954;2023-06-26T09:50:33;4.75;;;4.18;;
10343;SDS011;5217;43.960;10.954;2023-06-26T09:53:08;4.80;;;4.40;;
10343;SDS011;5217;43.960;10.954;2023-06-26T09:55:38;4.95;;;4.50;;
10343;SDS011;5217;43.960;10.954;2023-06-26T09:58:11;7.00;;;5.20;;
10343;SDS011;5217;43.960;10.954;2023-06-26T10:00:41;5.30;;;4.80;;
10343;SDS011;5217;43.960;10.954;2023-06-26T10:15:10;3.88;;;3.58;;
10343;SDS011;5217;43.960;10.954;2023-06-26T10:17:43;4.60;;;4.20;;
10343;SDS011;5217;43.960;10.954;2023-06-26T10:20:14;4.30;;;3.90;;
10343;SDS011;5217;43.960;10.954;2023-06-26T10:22:44;4.50;;;4.05;;
10343;SDS011;5217;43.960;10.954;2023-06-26T10:25:16;5.05;;;4.63;;
10343;SDS011;5217;43.960;10.954;2023-06-26T10:27:48;5.35;;;4.85;;
10343;SDS011;5217;43.960;10.954;2023-06-26T10:30:24;5.05;;;4.65;;
10343;SDS011;5217;43.960;10.954;2023-06-26T10:32:56;4.97;;;4.55;;
10343;SDS011;5217;43.960;10.954;2023-06-26T10:35:25;4.63;;;4.22;;
10343;SDS011;5217;43.960;10.954;2023-06-26T10:37:59;4.57;;;4.18;;
10343;SDS011;5217;43.960;10.954;2023-06-26T10:40:39;4.88;;;4.35;;
10343;SDS011;5217;43.960;10.954;2023-06-26T10:43:09;4.55;;;4.15;;
10343;SDS011;5217;43.960;10.954;2023-06-26T10:45:44;4.50;;;4.10;;
10343;SDS011;5217;43.960;10.954;2023-06-26T10:48:14;4.88;;;4.45;;
10343;SDS011;5217;43.960;10.954;2023-06-26T10:50:43;5.22;;;4.78;;
10343;SDS011;5217;43.960;10.954;2023-06-26T10:53:15;5.25;;;4.75;;
10343;SDS011;5217;43.960;10.954;2023-06-26T10:55:55;7.28;;;5.53;;
10343;SDS011;5217;43.960;10.954;2023-06-26T10:58:28;5.50;;;5.00;;
10343;SDS011;5217;43.960;10.954;2023-06-26T11:01:20;5.03;;;4.53;;
10343;SDS011;5217;43.960;10.954;2023-06-26T11:04:06;4.70;;;4.30;;
10343;SDS011;5217;43.960;10.954;2023-06-26T11:06:37;5.00;;;4.60;;
10343;SDS011;5217;43.960;10.954;2023-06-26T11:09:07;5.28;;;4.88;;
10343;SDS011;5217;43.960;10.954;2023-06-26T11:14:39;5.03;;;4.63;;
10343;SDS011;5217;43.960;10.954;2023-06-26T11:17:09;5.38;;;4.88;;
10343;SDS011;5217;43.960;10.954;2023-06-26T11:19:41;6.55;;;4.97;;
10343;SDS011;5217;43.960;10.954;2023-06-26T11:22:14;4.50;;;4.10;;
10343;SDS011;5217;43.960;10.954;2023-06-26T11:24:43;4.78;;;4.38;;
10343;SDS011;5217;43.960;10.954;2023-06-26T11:27:13;4.75;;;4.30;;
10343;SDS011;5217;43.960;10.954;2023-06-26T11:29:47;4.50;;;4.10;;
10343;SDS011;5217;43.960;10.954;2023-06-26T11:32:19;4.75;;;4.35;;
10343;SDS011;5217;43.960;10.954;2023-06-26T11:34:48;5.03;;;4.60;;
10343;SDS011;5217;43.960;10.954;2023-06-26T11:37:17;5.10;;;4.60;;
10343;SDS011;5217;43.960;10.954;2023-06-26T11:39:45;5.53;;;5.03;;
10343;SDS011;5217;43.960;10.954;2023-06-26T11:42:14;5.03;;;4.53;;
10343;SDS011;5217;43.960;10.954;2023-06-26T11:44:43;4.95;;;4.55;;
10343;SDS011;5217;43.960;10.954;2023-06-26T11:47:12;4.80;;;4.40;;
10343;SDS011;5217;43.960;10.954;2023-06-26T11:49:43;5.93;;;5.22;;
10343;SDS011;5217;43.960;10.954;2023-06-26T11:52:15;4.90;;;4.50;;
10343;SDS011;5217;43.960;10.954;2023-06-26T11:54:44;5.50;;;5.00;;
10343;SDS011;5217;43.960;10.954;2023-06-26T11:57:14;5.10;;;4.60;;
10343;SDS011;5217;43.960;10.954;2023-06-26T11:59:44;5.47;;;4.97;;
10343;SDS011;5217;43.960;10.954;2023-06-26T12:02:13;5.45;;;4.95;;
10343;SDS011;5217;43.960;10.954;2023-06-26T12:04:44;6.00;;;5.40;;
10343;SDS011;5217;43.960;10.954;2023-06-26T12:07:13;5.53;;;5.00;;
10343;SDS011;5217;43.960;10.954;2023-06-26T12:09:44;5.40;;;5.00;;
10343;SDS011;5217;43.960;10.954;2023-06-26T12:12:15;5.53;;;5.03;;
10343;SDS011;5217;43.960;10.954;2023-06-26T12:14:45;5.57;;;5.07;;
10343;SDS011;5217;43.960;10.954;2023-06-26T12:17:14;5.15;;;4.70;;
10343;SDS011;5217;43.960;10.954;2023-06-26T12:19:44;5.13;;;4.72;;
10343;SDS011;5217;43.960;10.954;2023-06-26T12:22:15;4.78;;;4.40;;
10343;SDS011;5217;43.960;10.954;2023-06-26T12:24:45;4.80;;;4.40;;
10343;SDS011;5217;43.960;10.954;2023-06-26T12:27:14;4.82;;;4.43;;
10343;SDS011;5217;43.960;10.954;2023-06-26T12:29:47;4.50;;;4.13;;
10343;SDS011;5217;43.960;10.954;2023-06-26T12:32:19;4.75;;;4.35;;
10343;SDS011;5217;43.960;10.954;2023-06-26T12:34:51;4.82;;;4.43;;
10343;SDS011;5217;43.960;10.954;2023-06-26T12:37:20;5.63;;;4.70;;
10343;SDS011;5217;43.960;10.954;2023-06-26T12:39:49;4.82;;;4.47;;
10343;SDS011;5217;43.960;10.954;2023-06-26T12:42:19;5.15;;;4.65;;
10343;SDS011;5217;43.960;10.954;2023-06-26T12:44:49;4.72;;;4.32;;
10343;SDS011;5217;43.960;10.954;2023-06-26T12:47:19;5.07;;;4.68;;
10343;SDS011;5217;43.960;10.954;2023-06-26T12:49:55;4.53;;;4.22;;
10343;SDS011;5217;43.960;10.954;2023-06-26T12:52:24;5.88;;;5.38;;
10343;SDS011;5217;43.960;10.954;2023-06-26T12:54:54;5.50;;;5.00;;
10343;SDS011;5217;43.960;10.954;2023-06-26T12:57:24;5.30;;;4.80;;
10343;SDS011;5217;43.960;10.954;2023-06-26T12:59:53;6.43;;;5.00;;
10343;SDS011;5217;43.960;10.954;2023-06-26T13:02:21;8.38;;;5.20;;
10343;SDS011;5217;43.960;10.954;2023-06-26T13:04:50;6.50;;;5.05;;
10343;SDS011;5217;43.960;10.954;2023-06-26T13:07:21;5.68;;;5.18;;
10343;SDS011;5217;43.960;10.954;2023-06-26T13:09:52;7.63;;;4.50;;
10343;SDS011;5217;43.960;10.954;2023-06-26T13:12:22;5.50;;;4.65;;
10343;SDS011;5217;43.960;10.954;2023-06-26T13:14:51;9.63;;;5.65;;
10343;SDS011;5217;43.960;10.954;2023-06-26T13:17:19;11.10;;;5.20;;
10343;SDS011;5217;43.960;10.954;2023-06-26T13:19:48;7.03;;;5.00;;
10343;SDS011;5217;43.960;10.954;2023-06-26T13:22:17;6.00;;;5.13;;
10343;SDS011;5217;43.960;10.954;2023-06-26T13:24:48;5.70;;;5.20;;
10343;SDS011;5217;43.960;10.954;2023-06-26T13:27:17;7.55;;;5.32;;
10343;SDS011;5217;43.960;10.954;2023-06-26T13:29:46;6.90;;;4.90;;
10343;SDS011;5217;43.960;10.954;2023-06-26T13:32:15;5.30;;;4.80;;
10343;SDS011;5217;43.960;10.954;2023-06-26T13:34:44;5.30;;;4.70;;
10343;SDS011;5217;43.960;10.954;2023-06-26T13:37:15;5.07;;;4.68;;
10343;SDS011;5217;43.960;10.954;2023-06-26T13:39:43;6.57;;;4.65;;
10343;SDS011;5217;43.960;10.954;2023-06-26T13:42:17;4.63;;;4.22;;
10343;SDS011;5217;43.960;10.954;2023-06-26T13:44:46;6.68;;;4.45;;
10343;SDS011;5217;43.960;10.954;2023-06-26T13:47:28;6.78;;;4.85;;
10343;SDS011;5217;43.960;10.954;2023-06-26T13:49:57;9.68;;;4.75;;
10343;SDS011;5217;43.960;10.954;2023-06-26T13:52:25;6.22;;;4.72;;
10343;SDS011;5217;43.960;10.954;2023-06-26T13:54:54;5.25;;;4.72;;
10343;SDS011;5217;43.960;10.954;2023-06-26T13:57:23;7.82;;;5.10;;
10343;SDS011;5217;43.960;10.954;2023-06-26T13:59:54;5.00;;;4.60;;
10343;SDS011;5217;43.960;10.954;2023-06-26T14:02:23;4.80;;;4.40;;
10343;SDS011;5217;43.960;10.954;2023-06-26T14:04:53;4.65;;;4.25;;
10343;SDS011;5217;43.960;10.954;2023-06-26T14:07:21;4.65;;;4.25;;
10343;SDS011;5217;43.960;10.954;2023-06-26T14:09:50;8.02;;;4.80;;
10343;SDS011;5217;43.960;10.954;2023-06-26T14:12:18;5.07;;;4.65;;
10343;SDS011;5217;43.960;10.954;2023-06-26T14:14:48;4.50;;;4.10;;
10343;SDS011;5217;43.960;10.954;2023-06-26T14:17:16;4.80;;;4.40;;
10343;SDS011;5217;43.960;10.954;2023-06-26T14:19:45;4.03;;;3.72;;
10343;SDS011;5217;43.960;10.954;2023-06-26T14:22:13;4.72;;;4.30;;
10343;SDS011;5217;43.960;10.954;2023-06-26T14:24:41;4.75;;;4.22;;
10343;SDS011;5217;43.960;10.954;2023-06-26T14:27:10;4.20;;;3.80;;
10343;SDS011;5217;43.960;10.954;2023-06-26T14:29:38;4.70;;;4.20;;
10343;SDS011;5217;43.960;10.954;2023-06-26T14:32:08;5.50;;;4.53;;
10343;SDS011;5217;43.960;10.954;2023-06-26T14:34:36;6.30;;;4.20;;
10343;SDS011;5217;43.960;10.954;2023-06-26T14:37:05;4.72;;;4.35;;
10343;SDS011;5217;43.960;10.954;2023-06-26T14:39:33;4.88;;;4.45;;
10343;SDS011;5217;43.960;10.954;2023-06-26T14:42:02;3.88;;;3.58;;
10343;SDS011;5217;43.960;10.954;2023-06-26T14:44:32;4.50;;;4.10;;
10343;SDS011;5217;43.960;10.954;2023-06-26T14:47:01;5.30;;;4.80;;
10343;SDS011;5217;43.960;10.954;2023-06-26T14:49:31;4.97;;;4.50;;
10343;SDS011;5217;43.960;10.954;2023-06-26T14:51:59;4.63;;;4.22;;
10343;SDS011;5217;43.960;10.954;2023-06-26T14:54:28;4.10;;;3.80;;
10343;SDS011;5217;43.960;10.954;2023-06-26T14:56:56;4.43;;;4.05;;
10343;SDS011;5217;43.960;10.954;2023-06-26T14:59:25;4.35;;;3.97;;
10343;SDS011;5217;43.960;10.954;2023-06-26T15:01:53;4.70;;;4.30;;
10343;SDS011;5217;43.960;10.954;2023-06-26T15:04:22;4.40;;;4.00;;
10343;SDS011;5217;43.960;10.954;2023-06-26T15:06:51;4.25;;;3.90;;
10343;SDS011;5217;43.960;10.954;2023-06-26T15:09:20;6.50;;;4.25;;
10343;SDS011;5217;43.960;10.954;2023-06-26T15:11:48;4.18;;;3.88;;
10343;SDS011;5217;43.960;10.954;2023-06-26T15:14:17;4.25;;;3.95;;
10343;SDS011;5217;43.960;10.954;2023-06-26T15:16:45;4.00;;;3.70;;
10343;SDS011;5217;43.960;10.954;2023-06-26T15:19:14;4.45;;;4.05;;